Time;durP1;ratioP1;P1;durP2;ratioP2;P2;SDS_P1;SDS_P2;PMS_P1;PMS_P2;Temp;Humidity;BMP_temperature;BMP_pressure;BME280_temperature;BME280_humidity;BME280_pressure;Samples;Min_cycle;Max_cycle;Signal;HPM_P1;HPM_P2
2022/11/15 00:01:46;;;;;;;29.33;22.73;;;7.30;99.90;;;;;;4959552;28;20153;-78
2022/11/15 00:04:12;;;;;;;28.75;23.00;;;7.30;99.90;;;;;;4974344;28;20058;-77
2022/11/15 00:06:37;;;;;;;29.75;21.10;;;7.10;99.90;;;;;;4975565;28;20125;-78
2022/11/15 00:09:03;;;;;;;30.02;22.35;;;8.00;99.90;;;;;;4958372;28;20055;-78
2022/11/15 00:11:29;;;;;;;30.95;22.83;;;7.10;99.90;;;;;;4975244;28;20106;-77
2022/11/15 00:13:56;;;;;;;31.27;22.00;;;7.00;99.90;;;;;;4943186;28;20043;-78
2022/11/15 00:16:22;;;;;;;29.77;22.25;;;7.10;99.90;;;;;;4974810;28;20101;-78
2022/11/15 00:18:48;;;;;;;27.75;20.15;;;7.10;99.90;;;;;;4974027;28;20292;-79
2022/11/15 00:21:15;;;;;;;27.13;21.38;;;7.20;99.90;;;;;;4974727;28;20053;-78
2022/11/15 00:23:40;;;;;;;28.52;21.50;;;7.20;99.90;;;;;;4974961;28;20047;-79
2022/11/15 00:26:10;;;;;;;29.00;21.77;;;7.30;99.90;;;;;;4974697;28;20057;-78
2022/11/15 00:28:35;;;;;;;27.95;21.90;;;7.40;99.90;;;;;;4960471;28;20126;-78
2022/11/15 00:31:03;;;;;;;30.50;22.75;;;7.40;99.90;;;;;;4958628;28;20543;-78
2022/11/15 00:33:29;;;;;;;28.42;20.23;;;7.40;99.90;;;;;;4984961;28;20140;-79
2022/11/15 00:36:08;;;;;;;31.65;21.90;;;7.50;99.90;;;;;;4994331;28;20089;-77
2022/11/15 00:38:35;;;;;;;30.30;22.77;;;7.60;99.90;;;;;;4993846;28;20054;-78
2022/11/15 00:41:02;;;;;;;29.52;21.77;;;7.60;99.90;;;;;;4993485;28;20126;-77
2022/11/15 00:43:28;;;;;;;29.42;21.27;;;7.60;99.90;;;;;;4963405;28;20072;-77
2022/11/15 00:45:54;;;;;;;27.55;19.50;;;7.60;99.90;;;;;;4971771;28;20134;-77
2022/11/15 00:48:20;;;;;;;29.45;21.77;;;7.70;99.90;;;;;;4982531;28;20479;-77
2022/11/15 00:50:45;;;;;;;30.73;21.90;;;7.70;99.90;;;;;;4993686;28;20038;-77
2022/11/15 00:53:11;;;;;;;30.63;22.67;;;7.80;99.90;;;;;;4993868;28;20125;-77
2022/11/15 00:55:37;;;;;;;32.08;23.08;;;7.70;99.90;;;;;;4994132;28;20054;-77
2022/11/15 00:58:02;;;;;;;32.38;23.05;;;7.60;99.90;;;;;;4963982;28;20126;-78
2022/11/15 01:00:28;;;;;;;31.75;22.52;;;7.80;99.90;;;;;;4960114;28;20050;-79
2022/11/15 01:02:54;;;;;;;32.65;22.65;;;7.80;99.90;;;;;;4973908;28;20505;-79
2022/11/15 01:05:20;;;;;;;29.15;22.13;;;7.70;99.90;;;;;;4958088;28;20050;-77
2022/11/15 01:07:46;;;;;;;28.60;21.48;;;7.70;99.90;;;;;;4975339;28;20066;-77
2022/11/15 01:10:11;;;;;;;33.28;23.02;;;7.80;99.90;;;;;;4964801;28;20491;-78
2022/11/15 01:12:37;;;;;;;34.47;23.20;;;7.90;99.90;;;;;;4970392;28;20058;-79
2022/11/15 01:15:04;;;;;;;30.38;22.02;;;7.80;99.90;;;;;;4974123;28;20047;-79
2022/11/15 01:17:31;;;;;;;34.00;21.85;;;7.80;99.90;;;;;;4974221;28;20134;-79
2022/11/15 01:19:57;;;;;;;33.13;22.30;;;7.80;99.90;;;;;;4960995;28;20525;-78
2022/11/15 01:22:23;;;;;;;31.30;21.95;;;7.80;99.90;;;;;;4974061;28;20042;-78
2022/11/15 01:24:51;;;;;;;31.00;22.85;;;7.80;99.90;;;;;;4972913;28;20054;-79
2022/11/15 01:27:17;;;;;;;30.38;21.60;;;7.80;99.90;;;;;;4957824;28;20123;-77
2022/11/15 01:29:43;;;;;;;31.98;22.17;;;7.90;99.90;;;;;;4973369;28;20121;-79
2022/11/15 01:32:09;;;;;;;30.92;21.85;;;7.80;99.90;;;;;;4978691;28;20101;-78
2022/11/15 01:34:34;;;;;;;32.03;22.00;;;7.80;99.90;;;;;;4977725;28;20113;-78
2022/11/15 01:37:00;;;;;;;32.13;23.50;;;7.80;99.90;;;;;;4941561;28;20074;-78
2022/11/15 01:39:26;;;;;;;30.15;21.85;;;7.80;99.90;;;;;;4974298;28;20118;-78
2022/11/15 01:41:52;;;;;;;31.10;21.67;;;7.80;99.90;;;;;;4981882;28;20086;-79
2022/11/15 01:44:40;;;;;;;34.08;21.63;;;7.80;99.90;;;;;;4980409;28;20159;-77
2022/11/15 01:47:34;;;;;;;28.70;21.10;;;7.90;99.90;;;;;;4977668;28;20113;-76
2022/11/15 01:50:11;;;;;;;29.27;21.33;;;7.90;99.90;;;;;;4961861;28;20057;-79
2022/11/15 01:52:39;;;;;;;29.13;21.10;;;7.80;99.90;;;;;;4981788;28;20050;-77
2022/11/15 01:55:21;;;;;;;28.83;21.70;;;7.90;99.90;;;;;;4973192;28;20058;-77
2022/11/15 01:57:49;;;;;;;;;;;7.90;99.90;;;;;;4972768;28;20524;-79
2022/11/15 02:00:15;;;;;;;30.35;20.85;;;7.90;99.90;;;;;;4971327;28;19929;-78
2022/11/15 02:02:41;;;;;;;29.85;21.42;;;7.90;99.90;;;;;;4974610;28;20054;-78
2022/11/15 02:05:07;;;;;;;31.08;21.42;;;7.90;99.90;;;;;;4974004;28;20130;-77
2022/11/15 02:07:34;;;;;;;33.83;22.27;;;8.00;99.90;;;;;;4956450;28;20054;-78
2022/11/15 02:10:07;;;;;;;30.58;21.45;;;8.00;99.90;;;;;;4972541;28;20463;-77
2022/11/15 02:12:33;;;;;;;30.40;21.27;;;8.00;99.90;;;;;;4973331;28;20062;-78
2022/11/15 02:14:59;;;;;;;30.98;22.00;;;8.00;99.90;;;;;;4955432;28;20563;-78
2022/11/15 02:17:55;;;;;;;33.58;23.02;;;8.00;99.90;;;;;;4972925;28;20050;-78
2022/11/15 02:20:39;;;;;;;33.10;22.73;;;8.00;99.90;;;;;;4975342;28;20099;-78
2022/11/15 02:23:11;;;;;;;34.95;23.05;;;8.00;99.90;;;;;;4972331;28;20450;-78
2022/11/15 02:25:59;;;;;;;38.17;24.55;;;7.90;99.90;;;;;;4953586;28;20122;-78
2022/11/15 02:28:31;;;;;;;34.70;23.10;;;8.00;99.90;;;;;;4971562;28;20058;-78
2022/11/15 02:31:05;;;;;;;37.72;24.02;;;8.00;99.90;;;;;;4983900;28;20055;-78
2022/11/15 02:33:43;;;;;;;39.47;25.10;;;8.00;99.90;;;;;;4959958;28;20127;-78
2022/11/15 02:36:26;;;;;;;38.42;24.65;;;8.00;99.90;;;;;;4973237;28;20091;-77
2022/11/15 02:39:01;;;;;;;35.67;23.80;;;8.00;99.90;;;;;;4984690;28;20077;-78
2022/11/15 02:41:38;;;;;;;42.72;24.40;;;8.00;99.90;;;;;;4972680;28;20047;-76
2022/11/15 02:44:28;;;;;;;43.72;25.25;;;8.00;99.90;;;;;;5007431;28;20101;-78
2022/11/15 02:47:20;;;;;;;38.10;24.10;;;8.00;99.90;;;;;;4971685;28;20113;-78
2022/11/15 02:49:49;;;;;;;38.53;24.55;;;8.00;99.90;;;;;;4960501;28;20059;-78
2022/11/15 02:52:27;;;;;;;38.47;24.95;;;8.00;99.90;;;;;;5000753;28;20082;-78
2022/11/15 02:55:01;;;;;;;41.95;24.73;;;8.10;99.90;;;;;;4963600;28;20058;-79
2022/11/15 02:57:52;;;;;;;40.30;25.80;;;8.00;99.90;;;;;;4970918;28;20050;-78
2022/11/15 03:00:20;;;;;;;39.42;25.13;;;8.00;99.90;;;;;;4960184;28;20043;-78
2022/11/15 03:03:37;;;;;;;41.72;26.30;;;8.10;99.90;;;;;;4976513;28;20090;-78
2022/11/15 03:06:15;;;;;;;44.10;26.38;;;8.10;99.90;;;;;;4974364;28;20050;-78
2022/11/15 03:09:09;;;;;;;40.55;25.48;;;8.10;99.90;;;;;;4977975;28;20050;-78
2022/11/15 03:11:41;;;;;;;39.55;25.35;;;8.10;99.90;;;;;;4991216;28;20065;-77
2022/11/15 03:14:19;;;;;;;39.65;25.63;;;8.90;99.90;;;;;;4979762;28;20042;-78
2022/11/15 03:17:11;;;;;;;42.05;26.55;;;8.20;99.90;;;;;;4980511;28;20050;-78
2022/11/15 03:19:44;;;;;;;43.92;27.50;;;8.20;99.90;;;;;;4977761;28;20042;-78
2022/11/15 03:22:14;;;;;;;43.28;27.00;;;8.30;99.90;;;;;;4975264;28;20133;-78
2022/11/15 03:24:41;;;;;;;45.90;27.73;;;8.20;99.90;;;;;;4976366;28;20085;-78
2022/11/15 03:27:09;;;;;;;45.92;26.58;;;8.20;99.90;;;;;;4975885;28;20201;-78
2022/11/15 03:29:48;;;;;;;45.58;28.27;;;8.20;99.90;;;;;;4978683;28;20042;-78
2022/11/15 03:32:25;;;;;;;48.50;27.52;;;8.30;99.90;;;;;;4960094;28;20172;-78
2022/11/15 03:35:13;;;;;;;40.42;27.17;;;8.30;99.90;;;;;;4974560;28;20058;-78
2022/11/15 03:38:04;;;;;;;46.65;28.58;;;8.30;99.90;;;;;;4975043;28;20495;-78
2022/11/15 03:40:53;;;;;;;50.70;29.27;;;8.30;99.90;;;;;;4959024;28;20039;-79
2022/11/15 03:43:52;;;;;;;47.03;29.00;;;8.30;99.90;;;;;;4987531;28;20082;-80
2022/11/15 03:46:33;;;;;;;48.55;29.35;;;8.30;99.90;;;;;;4986247;28;20058;-78
2022/11/15 03:49:13;;;;;;;53.30;31.45;;;8.30;99.90;;;;;;4993518;28;20050;-78
2022/11/15 03:51:40;;;;;;;50.80;30.45;;;8.30;99.90;;;;;;4995174;28;20085;-78
2022/11/15 03:54:06;;;;;;;49.38;29.40;;;8.30;99.90;;;;;;4994434;28;20042;-77
2022/11/15 03:56:31;;;;;;;50.40;31.67;;;8.40;99.90;;;;;;4988155;28;20117;-78
2022/11/15 03:58:57;;;;;;;53.25;31.02;;;8.50;99.90;;;;;;4977933;28;20487;-76
2022/11/15 04:01:23;;;;;;;59.10;35.10;;;8.50;99.90;;;;;;4942341;28;20499;-76
2022/11/15 04:03:49;;;;;;;55.25;33.78;;;8.40;99.90;;;;;;4975177;28;20046;-75
2022/11/15 04:06:14;;;;;;;58.55;34.70;;;8.50;99.90;;;;;;4958708;28;20495;-75
2022/11/15 04:08:40;;;;;;;55.83;33.65;;;8.50;99.90;;;;;;4942136;28;20046;-75
2022/11/15 04:11:06;;;;;;;65.25;36.88;;;8.50;99.90;;;;;;4960054;28;20042;-75
2022/11/15 04:13:31;;;;;;;59.88;35.38;;;8.50;99.90;;;;;;4991462;28;20046;-75
2022/11/15 04:15:57;;;;;;;58.03;34.63;;;8.60;99.90;;;;;;4988739;28;20039;-76
2022/11/15 04:18:24;;;;;;;62.60;34.53;;;8.70;99.90;;;;;;4974658;28;20085;-74
2022/11/15 04:26:21;;;;;;;68.95;38.42;;;8.70;99.90;;;;;;4991667;28;20054;-75
2022/11/15 04:31:31;;;;;;;69.90;38.53;;;8.80;99.90;;;;;;4990805;28;20525;-75
2022/11/15 04:33:57;;;;;;;72.38;38.90;;;8.80;99.90;;;;;;4973298;28;20079;-76
2022/11/15 04:39:08;;;;;;;75.28;41.83;;;8.80;99.90;;;;;;4990197;28;20484;-74
2022/11/15 04:41:33;;;;;;;81.78;41.83;;;8.80;99.90;;;;;;4986589;28;20133;-74
2022/11/15 04:43:59;;;;;;;83.85;46.50;;;8.90;99.90;;;;;;4957862;28;20403;-74
2022/11/15 04:46:25;;;;;;;91.03;49.20;;;8.80;99.90;;;;;;4989450;28;20050;-76
2022/11/15 04:48:52;;;;;;;88.30;48.05;;;8.90;99.90;;;;;;4990003;28;20564;-76
2022/11/15 04:51:17;;;;;;;88.95;47.83;;;8.90;99.90;;;;;;4992449;28;20125;-76
2022/11/15 04:53:43;;;;;;;91.53;47.20;;;9.00;99.90;;;;;;4992092;28;20193;-74
2022/11/15 04:56:09;;;;;;;87.20;47.47;;;9.00;99.90;;;;;;4977214;28;20497;-75
2022/11/15 04:58:35;;;;;;;80.05;42.65;;;9.00;99.90;;;;;;4987545;28;20050;-76
2022/11/15 05:01:14;;;;;;;88.22;48.35;;;9.10;99.90;;;;;;4990668;28;20047;-75
2022/11/15 05:06:28;;;;;;;80.22;42.90;;;9.10;99.90;;;;;;4992412;28;20050;-75
2022/11/15 05:08:55;;;;;;;83.55;45.03;;;9.20;99.90;;;;;;4990518;28;20190;-74
2022/11/15 05:11:21;;;;;;;85.93;47.15;;;9.20;99.90;;;;;;4992654;28;20062;-75
2022/11/15 05:13:47;;;;;;;76.18;40.92;;;9.10;99.90;;;;;;4990879;28;20405;-76
2022/11/15 05:16:13;;;;;;;75.07;42.22;;;9.20;99.90;;;;;;4992142;28;20154;-75
2022/11/15 05:18:41;;;;;;;79.95;44.25;;;9.20;99.90;;;;;;4959326;28;20045;-74
2022/11/15 05:21:09;;;;;;;79.30;44.83;;;9.20;99.90;;;;;;4978007;28;20034;-75
2022/11/15 05:23:35;;;;;;;81.60;44.75;;;9.20;99.90;;;;;;4973819;28;20042;-75
2022/11/15 05:26:01;;;;;;;79.70;44.78;;;9.20;99.90;;;;;;4986551;28;20049;-75
2022/11/15 05:28:27;;;;;;;70.68;42.05;;;9.20;99.90;;;;;;4984668;28;20082;-75
2022/11/15 05:30:53;;;;;;;75.68;43.15;;;9.30;99.90;;;;;;4966590;28;20086;-75
2022/11/15 05:33:19;;;;;;;76.53;45.35;;;9.30;99.90;;;;;;4972348;28;20054;-74
2022/11/15 05:35:54;;;;;;;75.85;44.42;;;9.30;99.90;;;;;;4973781;28;20050;-75
2022/11/15 05:38:20;;;;;;;72.97;41.60;;;9.30;99.90;;;;;;4973322;28;20078;-75
2022/11/15 05:40:45;;;;;;;75.88;43.97;;;9.40;99.90;;;;;;4974816;28;20090;-74
2022/11/15 05:43:11;;;;;;;77.40;44.67;;;9.40;99.90;;;;;;4973164;28;20105;-75
2022/11/15 05:45:37;;;;;;;74.70;44.88;;;9.40;99.90;;;;;;4975657;28;20074;-74
2022/11/15 05:48:07;;;;;;;74.03;42.22;;;9.50;99.90;;;;;;4959501;28;20556;-74
2022/11/15 05:50:35;;;;;;;69.85;43.15;;;9.40;99.90;;;;;;4989522;28;20084;-76
2022/11/15 05:53:02;;;;;;;68.18;42.17;;;9.50;99.90;;;;;;4968722;28;20055;-77
2022/11/15 05:55:27;;;;;;;69.82;40.63;;;9.60;99.90;;;;;;4968350;28;20070;-74
2022/11/15 05:57:53;;;;;;;63.45;39.85;;;9.70;99.90;;;;;;4956923;28;20046;-78
2022/11/15 06:00:19;;;;;;;64.75;41.00;;;9.70;99.90;;;;;;4974364;28;20546;-74
2022/11/15 06:02:44;;;;;;;63.20;40.42;;;9.70;99.90;;;;;;4973159;28;20054;-74
2022/11/15 06:05:10;;;;;;;66.43;43.20;;;9.80;99.90;;;;;;4969901;28;20089;-74
2022/11/15 06:07:36;;;;;;;60.38;37.58;;;9.80;99.90;;;;;;4983821;28;20106;-76
2022/11/15 06:10:02;;;;;;;58.17;39.13;;;9.90;99.90;;;;;;4989075;28;20047;-74
2022/11/15 06:12:27;;;;;;;62.78;40.65;;;9.90;99.90;;;;;;4973445;28;20054;-75
2022/11/15 06:14:53;;;;;;;62.97;41.08;;;9.90;99.90;;;;;;4953569;28;20404;-74
2022/11/15 06:17:19;;;;;;;62.45;40.83;;;9.90;99.90;;;;;;4979400;28;20051;-75
2022/11/15 06:19:44;;;;;;;60.60;40.33;;;9.90;99.90;;;;;;4972041;28;20077;-78
2022/11/15 06:22:10;;;;;;;58.80;39.63;;;9.90;99.90;;;;;;4957324;28;20472;-75
2022/11/15 06:24:36;;;;;;;62.95;40.17;;;10.00;99.90;;;;;;4972536;28;20055;-75
2022/11/15 06:27:01;;;;;;;63.45;40.35;;;10.00;99.90;;;;;;4966496;28;20047;-75
2022/11/15 06:29:27;;;;;;;60.47;38.78;;;10.00;99.90;;;;;;4971971;28;20046;-75
2022/11/15 06:31:53;;;;;;;55.40;38.53;;;10.00;99.90;;;;;;4959652;28;20046;-76
2022/11/15 06:34:18;;;;;;;60.72;38.55;;;10.10;99.90;;;;;;4959491;28;20055;-75
2022/11/15 06:36:44;;;;;;;56.70;37.67;;;10.10;99.90;;;;;;4974886;28;20452;-76
2022/11/15 06:39:10;;;;;;;53.13;37.08;;;10.10;99.90;;;;;;4967189;28;20042;-75
2022/11/15 06:41:36;;;;;;;51.42;36.17;;;10.20;99.90;;;;;;4959982;28;20042;-75
2022/11/15 06:44:02;;;;;;;55.05;35.97;;;10.20;99.90;;;;;;4960442;28;20101;-75
2022/11/15 06:46:28;;;;;;;54.95;37.55;;;10.20;99.90;;;;;;4962824;28;20055;-75
2022/11/15 06:48:54;;;;;;;52.42;35.78;;;10.30;99.90;;;;;;4953358;28;20080;-76
2022/11/15 06:51:20;;;;;;;51.75;35.67;;;10.20;99.90;;;;;;4978094;28;20090;-75
2022/11/15 06:53:45;;;;;;;52.40;34.78;;;10.30;99.90;;;;;;4979435;28;20046;-75
2022/11/15 06:56:12;;;;;;;48.40;35.40;;;10.30;99.90;;;;;;4979619;28;20053;-75
2022/11/15 06:58:38;;;;;;;56.35;36.03;;;10.30;99.90;;;;;;4976332;28;20483;-75
2022/11/15 07:01:06;;;;;;;51.75;35.35;;;10.30;99.90;;;;;;4992389;28;20073;-75
2022/11/15 07:03:35;;;;;;;51.05;34.35;;;10.40;99.90;;;;;;4975446;28;20043;-74
2022/11/15 07:06:01;;;;;;;47.90;32.00;;;10.40;99.90;;;;;;4960275;28;20061;-74
2022/11/15 07:08:28;;;;;;;48.75;34.53;;;10.40;99.90;;;;;;4976079;28;20035;-75
2022/11/15 07:10:57;;;;;;;47.95;34.65;;;10.40;99.90;;;;;;4960076;28;20066;-75
2022/11/15 07:13:27;;;;;;;45.75;32.65;;;10.50;99.90;;;;;;4992151;28;20087;-74
2022/11/15 07:15:53;;;;;;;48.08;34.03;;;10.50;99.90;;;;;;4943816;28;20054;-76
2022/11/15 07:18:19;;;;;;;50.13;33.35;;;10.50;99.90;;;;;;4942847;28;20042;-75
2022/11/15 07:20:45;;;;;;;48.55;33.67;;;10.50;99.90;;;;;;4974673;28;20043;-74
2022/11/15 07:23:10;;;;;;;46.88;33.90;;;10.60;99.90;;;;;;4972834;28;20058;-75
2022/11/15 07:25:36;;;;;;;46.97;32.70;;;10.60;99.90;;;;;;4972685;28;20053;-74
2022/11/15 07:28:02;;;;;;;43.47;32.03;;;10.60;99.90;;;;;;4986824;28;20505;-75
2022/11/15 07:30:28;;;;;;;43.35;32.05;;;10.70;99.90;;;;;;4971108;28;20094;-76
2022/11/15 07:32:58;;;;;;;43.17;29.75;;;10.70;99.90;;;;;;4973203;28;20089;-76
2022/11/15 07:35:25;;;;;;;40.25;28.42;;;10.80;99.90;;;;;;4984285;28;20055;-77
2022/11/15 07:37:55;;;;;;;40.05;29.55;;;10.80;99.90;;;;;;4975401;28;20129;-75
2022/11/15 07:40:20;;;;;;;39.65;29.30;;;10.80;99.90;;;;;;4973819;28;20039;-75
2022/11/15 07:42:56;;;;;;;41.65;30.25;;;10.80;99.90;;;;;;4987762;28;20125;-76
2022/11/15 07:45:27;;;;;;;38.70;28.38;;;10.80;99.90;;;;;;4993381;28;20098;-78
2022/11/15 07:47:53;;;;;;;34.85;26.45;;;10.80;99.90;;;;;;4975429;28;20047;-77
2022/11/15 07:50:20;;;;;;;38.75;29.23;;;10.80;99.90;;;;;;4950360;28;20138;-75
2022/11/15 07:52:46;;;;;;;38.80;29.02;;;10.90;99.90;;;;;;4989588;28;20130;-75
2022/11/15 07:55:11;;;;;;;36.78;28.83;;;10.90;99.90;;;;;;4974930;28;20403;-75
2022/11/15 07:57:37;;;;;;;40.08;29.85;;;10.90;99.90;;;;;;4972524;28;20047;-76
2022/11/15 08:00:05;;;;;;;38.60;28.63;;;10.90;99.90;;;;;;4970260;28;20043;-77
2022/11/15 08:02:30;;;;;;;38.63;30.73;;;11.00;99.90;;;;;;4990374;28;20573;-76
2022/11/15 08:04:56;;;;;;;39.05;29.73;;;11.00;99.90;;;;;;4970557;28;20047;-75
2022/11/15 08:07:22;;;;;;;39.35;29.60;;;11.00;99.90;;;;;;4969115;28;20043;-75
2022/11/15 08:09:48;;;;;;;37.67;29.15;;;11.00;99.90;;;;;;4972575;28;20151;-75
2022/11/15 08:12:14;;;;;;;40.80;31.67;;;11.10;99.90;;;;;;4944017;28;20055;-76
2022/11/15 08:14:40;;;;;;;39.50;31.75;;;11.10;99.90;;;;;;4958656;28;20043;-76
2022/11/15 08:17:05;;;;;;;40.33;30.92;;;11.10;99.90;;;;;;4975214;28;20047;-75
2022/11/15 08:19:31;;;;;;;39.95;31.05;;;11.10;99.90;;;;;;4959365;28;20475;-75
2022/11/15 08:21:57;;;;;;;36.72;30.40;;;11.10;99.90;;;;;;4991105;28;20510;-76
2022/11/15 08:24:22;;;;;;;38.45;30.50;;;11.20;99.90;;;;;;4963049;28;20174;-76
2022/11/15 08:26:48;;;;;;;40.33;31.77;;;11.20;99.90;;;;;;4976362;28;20184;-76
2022/11/15 08:29:14;;;;;;;39.72;31.75;;;11.20;99.90;;;;;;4974758;28;20537;-75
2022/11/15 08:31:39;;;;;;;39.50;32.67;;;11.30;99.90;;;;;;4976228;28;20179;-76
2022/11/15 08:34:06;;;;;;;40.30;31.88;;;11.30;99.90;;;;;;4987969;28;20090;-75
2022/11/15 08:36:32;;;;;;;40.85;33.33;;;11.30;99.90;;;;;;4962826;28;20043;-76
2022/11/15 08:38:58;;;;;;;40.85;31.13;;;11.30;99.90;;;;;;4986500;28;20072;-76
2022/11/15 08:41:33;;;;;;;40.65;34.25;;;11.40;99.90;;;;;;4957450;28;20482;-76
2022/11/15 08:43:59;;;;;;;41.40;33.53;;;11.40;99.90;;;;;;4965729;28;20049;-75
2022/11/15 08:46:24;;;;;;;42.90;32.80;;;11.50;99.90;;;;;;4957993;28;20484;-75
2022/11/15 08:48:50;;;;;;;41.40;33.00;;;11.50;99.90;;;;;;4969336;28;20106;-78
2022/11/15 08:51:16;;;;;;;40.55;32.78;;;11.50;99.90;;;;;;4977134;28;20053;-75
2022/11/15 08:53:42;;;;;;;40.97;33.33;;;11.50;99.90;;;;;;4954126;28;20053;-76
2022/11/15 08:56:10;;;;;;;43.80;35.22;;;11.50;99.90;;;;;;4966048;28;20054;-75
2022/11/15 08:58:36;;;;;;;44.08;34.72;;;11.60;99.90;;;;;;4977835;28;20132;-75
2022/11/15 09:01:02;;;;;;;40.15;32.75;;;11.50;99.90;;;;;;4922522;28;20283;-75
2022/11/15 09:03:28;;;;;;;46.17;34.65;;;11.50;99.90;;;;;;4968125;28;20479;-77
2022/11/15 09:05:59;;;;;;;44.05;34.70;;;11.50;99.90;;;;;;4975103;28;20054;-76
2022/11/15 09:08:26;;;;;;;41.85;34.42;;;11.60;99.90;;;;;;4973534;28;20122;-75
2022/11/15 09:10:51;;;;;;;41.90;31.13;;;11.60;99.90;;;;;;4967232;28;20114;-75
2022/11/15 09:13:17;;;;;;;42.80;33.45;;;11.60;99.90;;;;;;4980991;28;20059;-76
2022/11/15 09:15:49;;;;;;;42.83;36.00;;;11.60;99.90;;;;;;5130858;27;1282422;-74
2022/11/15 09:18:15;;;;;;;42.03;34.00;;;11.60;99.90;;;;;;5148048;27;20046;-73
2022/11/15 09:20:41;;;;;;;44.90;34.63;;;11.60;99.90;;;;;;5136024;27;20046;-74
2022/11/15 09:23:06;;;;;;;41.22;33.03;;;11.60;99.90;;;;;;5118034;27;20383;-74
2022/11/15 09:25:32;;;;;;;41.28;33.15;;;11.70;99.90;;;;;;5149517;27;20095;-74
2022/11/15 09:27:58;;;;;;;40.95;32.97;;;11.70;99.90;;;;;;5137023;27;20070;-75
2022/11/15 09:30:25;;;;;;;46.40;36.63;;;11.70;99.90;;;;;;5151209;27;20045;-73
2022/11/15 09:32:51;;;;;;;43.35;35.70;;;11.60;99.90;;;;;;5148362;27;20054;-73
2022/11/15 09:35:17;;;;;;;42.65;35.10;;;11.70;99.90;;;;;;5117144;27;20034;-74
2022/11/15 09:37:43;;;;;;;41.25;34.15;;;11.70;99.90;;;;;;5151517;27;20492;-74
2022/11/15 09:40:16;;;;;;;46.50;36.03;;;11.70;99.90;;;;;;5134311;27;20042;-73
2022/11/15 09:42:53;;;;;;;36.83;30.65;;;11.80;99.90;;;;;;5122558;27;20058;-74
2022/11/15 09:45:53;;;;;;;37.67;32.33;;;11.90;99.90;;;;;;5151620;27;20606;-74
2022/11/15 09:48:39;;;;;;;38.78;32.58;;;11.90;99.90;;;;;;5150470;27;20057;-74
2022/11/15 09:51:21;;;;;;;36.20;28.77;;;11.90;99.90;;;;;;5142353;27;20047;-75
2022/11/15 09:53:58;;;;;;;33.22;26.25;;;11.90;99.90;;;;;;5147876;27;20034;-73
2022/11/15 09:56:30;;;;;;;34.28;29.50;;;11.90;99.90;;;;;;5139409;27;20073;-74
2022/11/15 09:59:05;;;;;;;34.75;28.95;;;11.90;99.90;;;;;;5145725;27;20050;-74
2022/11/15 10:01:39;;;;;;;36.97;32.38;;;11.90;99.90;;;;;;5145815;27;20114;-75
2022/11/15 10:04:05;;;;;;;36.05;31.50;;;11.90;99.90;;;;;;5131974;27;20106;-73
2022/11/15 10:06:34;;;;;;;36.58;30.42;;;11.90;99.90;;;;;;5150381;27;20039;-74
2022/11/15 10:09:03;;;;;;;37.22;32.10;;;11.90;99.90;;;;;;5148130;27;20047;-74
2022/11/15 10:11:32;;;;;;;38.72;32.63;;;11.90;99.90;;;;;;5151255;27;20038;-73
2022/11/15 10:14:01;;;;;;;35.58;28.10;;;11.90;99.90;;;;;;5129859;27;20058;-74
2022/11/15 10:16:48;;;;;;;31.30;27.38;;;11.90;99.90;;;;;;5148124;27;20046;-72
2022/11/15 10:19:25;;;;;;;29.10;24.92;;;11.90;99.90;;;;;;5131108;27;20050;-76
2022/11/15 10:22:25;;;;;;;32.10;25.77;;;11.90;99.90;;;;;;5147854;27;20054;-76
2022/11/15 10:25:12;;;;;;;31.60;25.10;;;11.90;99.90;;;;;;5150111;27;20042;-74
2022/11/15 10:27:40;;;;;;;29.15;25.23;;;11.90;99.90;;;;;;5134830;27;20134;-74
2022/11/15 10:30:15;;;;;;;33.17;27.92;;;11.90;99.90;;;;;;5119338;27;20125;-74
2022/11/15 10:32:42;;;;;;;31.58;27.02;;;11.90;99.90;;;;;;5137211;27;20404;-73
2022/11/15 10:35:25;;;;;;;31.45;27.30;;;11.90;99.90;;;;;;5115149;27;20043;-74
2022/11/15 10:37:51;;;;;;;32.55;26.73;;;11.90;99.90;;;;;;5135303;27;20461;-73
2022/11/15 10:40:23;;;;;;;34.55;29.10;;;11.90;99.90;;;;;;5117892;27;20049;-73
2022/11/15 10:43:13;;;;;;;30.95;27.65;;;11.80;99.90;;;;;;5115269;27;20108;-74
2022/11/15 10:45:39;;;;;;;32.60;27.33;;;11.90;99.90;;;;;;5136267;27;20074;-73
2022/11/15 10:48:11;;;;;;;30.20;26.95;;;11.80;99.90;;;;;;5135995;27;20066;-73
2022/11/15 10:50:38;;;;;;;31.17;26.48;;;11.80;99.90;;;;;;5119276;27;20367;-75
2022/11/15 10:53:12;;;;;;;29.85;26.40;;;11.90;99.90;;;;;;5136516;27;20055;-73
2022/11/15 10:55:40;;;;;;;27.10;24.25;;;11.90;99.90;;;;;;5134852;27;20133;-74
2022/11/15 10:58:30;;;;;;;27.20;24.05;;;12.00;99.90;;;;;;5101179;27;20082;-72
2022/11/15 11:00:55;;;;;;;24.00;21.40;;;12.10;99.90;;;;;;5136553;27;20061;-73
2022/11/15 11:03:35;;;;;;;23.58;20.95;;;12.20;99.90;;;;;;5134817;27;20478;-74
2022/11/15 11:06:09;;;;;;;23.35;18.77;;;12.20;99.90;;;;;;5115643;27;20496;-75
2022/11/15 11:08:35;;;;;;;22.40;18.88;;;12.20;99.90;;;;;;5134355;27;20042;-75
2022/11/15 11:11:03;;;;;;;19.52;16.35;;;12.20;99.90;;;;;;5117580;27;20050;-73
2022/11/15 11:13:37;;;;;;;22.70;17.30;;;12.20;99.90;;;;;;5115417;27;20096;-73
2022/11/15 11:16:33;;;;;;;17.88;15.68;;;12.30;99.90;;;;;;5133870;27;20553;-75
2022/11/15 11:19:23;;;;;;;18.35;14.13;;;12.40;99.90;;;;;;5134605;27;20500;-76
2022/11/15 11:22:04;;;;;;;16.15;12.05;;;12.50;99.90;;;;;;5130213;27;20078;-76
2022/11/15 11:24:36;;;;;;;14.45;12.00;;;12.60;99.90;;;;;;5131888;27;20038;-76
2022/11/15 11:27:38;;;;;;;15.65;11.50;;;12.70;99.90;;;;;;5115158;27;20053;-75
2022/11/15 11:30:41;;;;;;;12.73;10.35;;;12.70;99.90;;;;;;5131654;27;20043;-77
2022/11/15 11:33:15;;;;;;;14.27;9.07;;;12.70;99.90;;;;;;5129791;27;20404;-76
2022/11/15 11:35:51;;;;;;;11.35;7.57;;;12.80;99.90;;;;;;5131150;27;20072;-76
2022/11/15 11:38:32;;;;;;;11.00;5.97;;;12.70;99.90;;;;;;5132238;27;20038;-77
2022/11/15 11:41:07;;;;;;;10.90;6.47;;;12.70;99.90;;;;;;5113040;27;20039;-76
2022/11/15 11:44:06;;;;;;;8.93;5.72;;;12.70;99.90;;;;;;5116181;27;20054;-77
2022/11/15 11:46:55;;;;;;;9.75;6.60;;;12.60;99.90;;;;;;5150286;27;20069;-76
2022/11/15 11:49:35;;;;;;;9.02;6.40;;;12.50;99.90;;;;;;5131825;27;20495;-77
2022/11/15 11:52:16;;;;;;;10.25;6.55;;;12.50;99.90;;;;;;5133478;27;20038;-77
2022/11/15 11:54:57;;;;;;;11.63;6.57;;;12.60;99.90;;;;;;5132297;27;20517;-76
2022/11/15 11:57:31;;;;;;;11.10;6.60;;;12.60;99.90;;;;;;5109208;27;20511;-77
2022/11/15 12:00:18;;;;;;;10.65;6.63;;;12.60;99.90;;;;;;5132379;27;20563;-77
2022/11/15 12:03:12;;;;;;;9.82;6.53;;;12.60;99.90;;;;;;5116542;27;20042;-77
2022/11/15 12:06:04;;;;;;;9.85;6.65;;;12.60;99.90;;;;;;5131301;27;20034;-77
2022/11/15 12:09:02;;;;;;;9.18;6.10;;;12.60;99.90;;;;;;5104901;27;20058;-78
2022/11/15 12:11:32;;;;;;;9.27;5.65;;;12.50;99.90;;;;;;5031458;28;20560;-79
2022/11/15 12:14:03;;;;;;;10.23;5.00;;;12.50;99.90;;;;;;5090310;28;20127;-78
2022/11/15 12:16:31;;;;;;;10.00;4.63;;;12.40;99.90;;;;;;5093373;28;20058;-78
2022/11/15 12:19:01;;;;;;;8.13;4.82;;;12.30;99.90;;;;;;5091347;28;20047;-77
2022/11/15 12:21:35;;;;;;;8.93;4.78;;;12.30;99.90;;;;;;5075796;28;20090;-77
2022/11/15 12:24:08;;;;;;;8.93;4.57;;;12.30;99.90;;;;;;5077129;28;20048;-77
2022/11/15 12:26:42;;;;;;;8.82;4.80;;;12.30;99.90;;;;;;5092742;28;20043;-77
2022/11/15 12:29:25;;;;;;;10.63;4.68;;;12.40;99.90;;;;;;5092516;28;20044;-76
2022/11/15 12:31:56;;;;;;;9.00;4.43;;;12.40;99.90;;;;;;5092188;28;20056;-75
2022/11/15 12:34:22;;;;;;;7.10;4.38;;;12.40;99.90;;;;;;5092617;28;20048;-77
2022/11/15 12:36:49;;;;;;;7.55;3.80;;;12.50;99.90;;;;;;5105940;28;20048;-76
2022/11/15 12:39:17;;;;;;;9.63;3.60;;;12.50;99.90;;;;;;5076291;28;20075;-77
2022/11/15 12:42:03;;;;;;;7.22;3.78;;;12.60;99.90;;;;;;5092235;28;20507;-77
2022/11/15 12:44:35;;;;;;;8.68;3.40;;;12.60;99.90;;;;;;5089538;28;20399;-76
2022/11/15 12:47:06;;;;;;;7.40;3.50;;;12.60;99.90;;;;;;5075204;28;20081;-78
2022/11/15 12:49:35;;;;;;;6.45;3.15;;;12.60;99.90;;;;;;5075311;28;20051;-77
2022/11/15 12:52:01;;;;;;;7.28;3.63;;;12.60;99.90;;;;;;5107602;28;20466;-76
2022/11/15 12:54:29;;;;;;;7.13;3.58;;;12.60;99.90;;;;;;5090158;28;20127;-76
2022/11/15 12:57:03;;;;;;;7.90;3.35;;;12.60;99.90;;;;;;5092946;28;20048;-76
2022/11/15 12:59:51;;;;;;;7.80;3.95;;;12.70;99.90;;;;;;5092685;28;20044;-77
2022/11/15 13:02:24;;;;;;;7.28;4.00;;;12.70;99.90;;;;;;5088765;28;20287;-76
2022/11/15 13:04:51;;;;;;;9.57;3.80;;;12.80;99.90;;;;;;5091025;28;20052;-76
2022/11/15 13:07:35;;;;;;;8.68;3.85;;;12.80;99.90;;;;;;5071430;28;20055;-77